createdAt,value
2022-08-12T00:00:02.281Z,0.00
2022-08-12T00:01:02.267Z,0.00
2022-08-12T00:02:05.616Z,0.00
2022-08-12T00:03:02.279Z,0.00
2022-08-12T00:04:02.229Z,0.00
2022-08-12T00:05:02.217Z,0.00
2022-08-12T00:06:05.050Z,0.00
2022-08-12T00:07:02.183Z,0.00
2022-08-12T00:08:02.165Z,0.00
2022-08-12T00:09:02.158Z,0.00
2022-08-12T00:10:02.142Z,0.00
2022-08-12T00:11:09.847Z,0.00
2022-08-12T00:12:03.143Z,0.00
2022-08-12T00:13:02.110Z,0.00
2022-08-12T00:14:02.085Z,0.00
2022-08-12T00:15:02.077Z,0.00
2022-08-12T00:16:02.066Z,0.00
2022-08-12T00:17:02.054Z,0.00
2022-08-12T00:18:02.031Z,0.00
2022-08-12T00:19:02.023Z,0.00
2022-08-12T00:20:02.016Z,0.00
2022-08-12T00:21:01.999Z,0.00
2022-08-12T00:22:01.981Z,0.00
2022-08-12T00:23:01.970Z,0.00
2022-08-12T00:24:01.953Z,0.00
2022-08-12T00:25:01.946Z,0.00
2022-08-12T00:26:22.342Z,0.00
2022-08-12T00:27:01.918Z,0.00
2022-08-12T00:28:01.904Z,0.00
2022-08-12T00:29:01.891Z,0.00
2022-08-12T00:30:01.870Z,0.00
2022-08-12T00:31:01.860Z,0.00
2022-08-12T00:32:01.840Z,0.00
2022-08-12T00:33:02.118Z,0.00
2022-08-12T00:34:01.816Z,0.00
2022-08-12T00:35:01.802Z,0.00
2022-08-12T00:36:02.819Z,0.00
2022-08-12T00:37:13.088Z,0.00
2022-08-12T00:38:02.785Z,0.00
2022-08-12T00:39:01.755Z,0.00
2022-08-12T00:40:01.738Z,0.00
2022-08-12T00:41:01.728Z,0.00
2022-08-12T00:42:01.705Z,0.00
2022-08-12T00:43:01.694Z,0.00
2022-08-12T00:44:01.678Z,0.00
2022-08-12T00:45:01.668Z,0.00
2022-08-12T00:46:01.656Z,0.00
2022-08-12T00:47:01.650Z,0.00
2022-08-12T00:48:01.628Z,0.00
2022-08-12T00:49:01.619Z,0.00
2022-08-12T00:50:01.603Z,0.00
2022-08-12T00:51:01.592Z,0.00
2022-08-12T00:52:01.573Z,0.00
2022-08-12T00:53:01.563Z,0.00
2022-08-12T00:54:01.542Z,0.00
2022-08-12T00:55:01.532Z,0.00
2022-08-12T00:56:01.513Z,0.00
2022-08-12T00:57:01.506Z,0.00
2022-08-12T00:58:01.486Z,0.00
2022-08-12T00:59:01.476Z,0.00
2022-08-12T01:00:01.467Z,0.00
2022-08-12T01:01:01.497Z,0.00
2022-08-12T01:02:12.216Z,0.00
2022-08-12T01:03:02.451Z,0.00
2022-08-12T01:04:01.411Z,0.00
2022-08-12T01:05:01.416Z,0.00
2022-08-12T01:06:01.384Z,0.00
2022-08-12T01:07:01.375Z,0.00
2022-08-12T01:08:01.357Z,0.00
2022-08-12T01:09:01.347Z,0.00
2022-08-12T01:10:01.326Z,0.00
2022-08-12T01:11:01.318Z,0.00
2022-08-12T01:12:01.299Z,0.00
2022-08-12T01:13:18.141Z,0.00
2022-08-12T01:14:02.303Z,0.00
2022-08-12T01:15:01.264Z,0.00
2022-08-12T01:16:01.263Z,0.00
2022-08-12T01:17:01.234Z,0.00
2022-08-12T01:18:01.224Z,0.00
2022-08-12T01:19:01.216Z,0.00
2022-08-12T01:20:01.197Z,0.00
2022-08-12T01:21:01.281Z,0.00
2022-08-12T01:22:01.175Z,0.00
2022-08-12T01:23:01.153Z,0.00
2022-08-12T01:24:28.113Z,0.00
2022-08-12T01:25:02.160Z,0.00
2022-08-12T01:26:01.112Z,0.00
2022-08-12T01:27:01.095Z,0.00
2022-08-12T01:28:01.086Z,0.00
2022-08-12T01:29:01.068Z,0.00
2022-08-12T01:30:01.059Z,0.00
2022-08-12T01:31:01.045Z,0.00
2022-08-12T01:32:01.035Z,0.00
2022-08-12T01:33:01.013Z,0.00
2022-08-12T01:34:01.014Z,0.00
2022-08-12T01:35:00.992Z,0.00
2022-08-12T01:36:08.292Z,0.00
2022-08-12T01:37:00.970Z,0.00
2022-08-12T01:38:00.954Z,0.00
2022-08-12T01:39:00.938Z,0.00
2022-08-12T01:40:35.109Z,0.00
2022-08-12T01:41:01.006Z,0.00
2022-08-12T01:42:00.898Z,0.00
2022-08-12T01:43:00.877Z,0.00
2022-08-12T01:44:00.867Z,0.00
2022-08-12T01:45:00.852Z,0.00
2022-08-12T01:46:00.851Z,0.00
2022-08-12T01:47:00.828Z,0.00
2022-08-12T01:48:00.826Z,0.00
2022-08-12T01:49:00.802Z,0.00
2022-08-12T01:50:00.789Z,0.00
2022-08-12T01:51:01.424Z,0.00
2022-08-12T01:52:15.689Z,0.00
2022-08-12T01:53:01.765Z,0.00
2022-08-12T01:54:00.736Z,0.00
2022-08-12T01:55:00.717Z,0.00
2022-08-12T01:56:00.705Z,0.00
2022-08-12T01:57:00.688Z,0.00
2022-08-12T01:58:01.433Z,0.00
2022-08-12T01:59:00.667Z,0.00
2022-08-12T02:00:00.660Z,0.00
2022-08-12T02:01:00.719Z,0.00
2022-08-12T02:02:00.632Z,0.00
2022-08-12T02:03:00.612Z,0.00
2022-08-12T02:04:00.600Z,0.00
2022-08-12T02:05:00.585Z,0.00
2022-08-12T02:06:00.571Z,0.00
2022-08-12T02:07:00.552Z,0.00
2022-08-12T02:08:00.540Z,0.00
2022-08-12T02:09:00.524Z,0.00
2022-08-12T02:10:00.516Z,0.00
2022-08-12T02:11:00.497Z,0.00
2022-08-12T02:12:04.563Z,0.00
2022-08-12T02:13:00.470Z,0.00
2022-08-12T02:14:00.463Z,0.00
2022-08-12T02:15:00.448Z,0.00
2022-08-12T02:16:00.443Z,0.00
2022-08-12T02:17:00.421Z,0.00
2022-08-12T02:18:00.407Z,0.00
2022-08-12T02:19:00.397Z,0.00
2022-08-12T02:20:00.378Z,0.00
2022-08-12T02:21:00.360Z,0.00
2022-08-12T02:22:00.352Z,0.00
2022-08-12T02:23:00.337Z,0.00
2022-08-12T02:24:00.322Z,0.00
2022-08-12T02:25:00.309Z,0.00
2022-08-12T02:26:00.439Z,0.00
2022-08-12T02:27:00.279Z,0.00
2022-08-12T02:28:00.273Z,0.00
2022-08-12T02:29:00.253Z,0.00
2022-08-12T02:30:00.241Z,0.00
2022-08-12T02:31:00.222Z,0.00
2022-08-12T02:32:00.219Z,0.00
2022-08-12T02:33:00.193Z,0.00
2022-08-12T02:34:00.187Z,0.00
2022-08-12T02:35:00.168Z,0.00
2022-08-12T02:36:00.158Z,0.00
2022-08-12T02:37:00.256Z,0.00
2022-08-12T02:38:00.133Z,0.00
2022-08-12T02:39:00.115Z,0.00
2022-08-12T02:40:00.274Z,0.00
2022-08-12T02:41:00.142Z,0.00
2022-08-12T02:42:00.094Z,0.00
2022-08-12T02:43:00.063Z,0.00
2022-08-12T02:44:00.055Z,0.00
2022-08-12T02:45:00.035Z,0.00
2022-08-12T02:46:00.025Z,0.00
2022-08-12T02:46:59.999Z,0.00
2022-08-12T02:48:01.397Z,0.00
2022-08-12T02:48:59.971Z,0.00
2022-08-12T02:49:59.966Z,0.00
2022-08-12T02:50:59.948Z,0.00
2022-08-12T02:51:59.936Z,0.00
2022-08-12T02:52:59.923Z,0.00
2022-08-12T02:54:04.798Z,0.00
2022-08-12T02:54:59.888Z,0.00
2022-08-12T02:55:59.875Z,0.00
2022-08-12T02:56:59.861Z,0.00
2022-08-12T02:57:59.849Z,0.00
2022-08-12T02:58:59.834Z,0.00
2022-08-12T02:59:59.826Z,0.00
2022-08-12T03:00:59.860Z,0.00
2022-08-12T03:01:59.803Z,0.00
2022-08-12T03:02:59.785Z,0.00
2022-08-12T03:03:59.771Z,0.00
2022-08-12T03:04:59.755Z,0.00
2022-08-12T03:05:59.746Z,0.00
2022-08-12T03:06:59.734Z,0.00
2022-08-12T03:08:00.392Z,0.00
2022-08-12T03:08:59.701Z,0.00
2022-08-12T03:10:05.522Z,0.00
2022-08-12T03:10:59.670Z,0.00
2022-08-12T03:11:59.661Z,0.00
2022-08-12T03:12:59.641Z,0.00
2022-08-12T03:13:59.631Z,0.00
2022-08-12T03:14:59.617Z,0.00
2022-08-12T03:15:59.614Z,0.00
2022-08-12T03:16:59.587Z,0.00
2022-08-12T03:18:24.049Z,0.00
2022-08-12T03:19:00.607Z,0.00
2022-08-12T03:20:10.337Z,0.00
2022-08-12T03:20:59.539Z,0.00
2022-08-12T03:22:08.749Z,0.00
2022-08-12T03:22:59.506Z,0.00
2022-08-12T03:23:59.504Z,0.00
2022-08-12T03:24:59.481Z,0.00
2022-08-12T03:25:59.533Z,0.00
2022-08-12T03:27:00.198Z,0.00
2022-08-12T03:27:59.448Z,0.00
2022-08-12T03:28:59.432Z,0.00
2022-08-12T03:29:59.418Z,0.00
2022-08-12T03:30:59.408Z,0.00
2022-08-12T03:31:59.391Z,0.00
2022-08-12T03:32:59.381Z,0.00
2022-08-12T03:34:02.282Z,0.00
2022-08-12T03:34:59.352Z,0.00
2022-08-12T03:35:59.336Z,0.00
2022-08-12T03:36:59.327Z,0.00
2022-08-12T03:37:59.308Z,0.00
2022-08-12T03:38:59.301Z,0.00
2022-08-12T03:39:59.308Z,0.00
2022-08-12T03:40:59.278Z,0.00
2022-08-12T03:41:59.257Z,0.00
2022-08-12T03:42:59.244Z,0.00
2022-08-12T03:43:59.233Z,0.00
2022-08-12T03:44:59.219Z,0.00
2022-08-12T03:45:59.213Z,0.00
2022-08-12T03:46:59.186Z,0.00
2022-08-12T03:47:59.182Z,0.00
2022-08-12T03:48:59.161Z,0.00
2022-08-12T03:49:59.158Z,0.00
2022-08-12T03:50:59.134Z,0.00
2022-08-12T03:51:59.131Z,0.00
2022-08-12T03:52:59.107Z,0.00
2022-08-12T03:53:59.098Z,0.00
2022-08-12T03:54:59.084Z,0.00
2022-08-12T03:55:59.071Z,0.00
2022-08-12T03:56:59.061Z,0.00
2022-08-12T03:57:59.049Z,0.00
2022-08-12T03:58:59.790Z,0.00
2022-08-12T03:59:59.024Z,0.00
2022-08-12T04:00:59.063Z,0.00
2022-08-12T04:01:59.012Z,0.00
2022-08-12T04:02:58.977Z,0.00
2022-08-12T04:03:58.967Z,0.00
2022-08-12T04:04:58.947Z,0.00
2022-08-12T04:05:58.937Z,0.00
2022-08-12T04:06:58.925Z,0.00
2022-08-12T04:07:58.914Z,0.00
2022-08-12T04:08:58.898Z,0.00
2022-08-12T04:09:58.883Z,5.62
2022-08-12T04:10:58.870Z,5.62
2022-08-12T04:11:58.861Z,5.62
2022-08-12T04:12:58.846Z,5.62
2022-08-12T04:13:58.835Z,5.62
2022-08-12T04:14:58.814Z,5.62
2022-08-12T04:15:58.807Z,5.62
2022-08-12T04:16:58.789Z,5.62
2022-08-12T04:18:07.661Z,5.62
2022-08-12T04:18:58.758Z,11.25
2022-08-12T04:19:58.760Z,11.25
2022-08-12T04:20:58.732Z,11.25
2022-08-12T04:22:03.055Z,11.25
2022-08-12T04:22:58.706Z,11.25
2022-08-12T04:23:58.700Z,11.25
2022-08-12T04:24:58.677Z,16.88
2022-08-12T04:25:58.667Z,16.88
2022-08-12T04:26:58.656Z,16.88
2022-08-12T04:27:58.639Z,16.88
2022-08-12T04:28:59.652Z,16.88
2022-08-12T04:30:30.252Z,16.88
2022-08-12T04:30:59.626Z,22.50
2022-08-12T04:31:58.591Z,22.50
2022-08-12T04:32:58.567Z,22.50
2022-08-12T04:33:58.564Z,22.50
2022-08-12T04:34:58.543Z,22.50
2022-08-12T04:35:58.535Z,28.12
2022-08-12T04:36:58.514Z,28.12
2022-08-12T04:38:00.644Z,28.12
2022-08-12T04:38:59.739Z,28.12
2022-08-12T04:39:58.557Z,33.75
2022-08-12T04:40:58.462Z,33.75
2022-08-12T04:41:58.895Z,33.75
2022-08-12T04:42:58.435Z,33.75
2022-08-12T04:44:01.869Z,39.38
2022-08-12T04:44:58.409Z,39.38
2022-08-12T04:45:58.398Z,39.38
2022-08-12T04:46:58.388Z,39.38
2022-08-12T04:47:58.373Z,45.00
2022-08-12T04:48:58.362Z,45.00
2022-08-12T04:49:58.351Z,45.00
2022-08-12T04:50:58.333Z,45.00
2022-08-12T04:51:59.542Z,45.00
2022-08-12T04:52:58.304Z,50.62
2022-08-12T04:53:58.291Z,50.62
2022-08-12T04:54:58.280Z,50.62
2022-08-12T04:55:58.262Z,50.62
2022-08-12T04:57:04.846Z,50.62
2022-08-12T04:57:59.263Z,50.62
2022-08-12T04:58:58.223Z,50.62
2022-08-12T04:59:58.217Z,56.25
2022-08-12T05:00:58.194Z,56.25
2022-08-12T05:01:58.231Z,56.25
2022-08-12T05:02:58.272Z,56.25
2022-08-12T05:03:58.158Z,56.25
2022-08-12T05:05:01.027Z,61.88
2022-08-12T05:05:58.137Z,61.88
2022-08-12T05:06:58.114Z,61.88
2022-08-12T05:07:58.105Z,61.88
2022-08-12T05:08:58.091Z,61.88
2022-08-12T05:09:59.714Z,67.50
2022-08-12T05:10:58.064Z,67.50
2022-08-12T05:11:58.061Z,67.50
2022-08-12T05:12:58.039Z,73.12
2022-08-12T05:13:58.027Z,73.12
2022-08-12T05:14:58.010Z,73.12
2022-08-12T05:16:05.097Z,78.75
2022-08-12T05:16:57.985Z,78.75
2022-08-12T05:17:59.997Z,78.75
2022-08-12T05:18:57.954Z,78.75
2022-08-12T05:19:58.155Z,84.38
2022-08-12T05:20:57.928Z,84.38
2022-08-12T05:21:57.921Z,84.38
2022-08-12T05:23:01.083Z,90.00
2022-08-12T05:23:57.894Z,90.00
2022-08-12T05:24:57.874Z,95.62
2022-08-12T05:25:57.874Z,95.62
2022-08-12T05:26:57.844Z,95.62
2022-08-12T05:27:58.978Z,95.62
2022-08-12T05:28:57.819Z,101.25
2022-08-12T05:30:06.894Z,101.25
2022-08-12T05:30:57.801Z,101.25
2022-08-12T05:31:57.784Z,101.25
2022-08-12T05:33:00.016Z,101.25
2022-08-12T05:33:57.751Z,101.25
2022-08-12T05:34:57.737Z,106.88
2022-08-12T05:35:57.723Z,118.12
2022-08-12T05:36:57.713Z,151.88
2022-08-12T05:37:57.696Z,146.25
2022-08-12T05:38:57.683Z,118.12
2022-08-12T05:39:57.746Z,123.75
2022-08-12T05:40:57.657Z,157.50
2022-08-12T05:41:57.656Z,180.00
2022-08-12T05:42:57.632Z,213.75
2022-08-12T05:43:57.617Z,270.00
2022-08-12T05:44:57.624Z,253.12
2022-08-12T05:45:57.589Z,208.12
2022-08-12T05:46:57.588Z,185.62
2022-08-12T05:47:57.560Z,185.62
2022-08-12T05:48:57.553Z,185.62
2022-08-12T05:49:57.661Z,191.25
2022-08-12T05:50:57.563Z,213.75
2022-08-12T05:51:57.501Z,241.88
2022-08-12T05:52:57.492Z,365.62
2022-08-12T05:53:57.536Z,455.62
2022-08-12T05:54:58.064Z,483.75
2022-08-12T05:55:57.518Z,483.75
2022-08-12T05:56:57.540Z,483.75
2022-08-12T05:57:57.540Z,506.25
2022-08-12T05:58:57.540Z,523.12
2022-08-12T05:59:57.576Z,534.38
2022-08-12T06:00:57.512Z,540.00
2022-08-12T06:02:09.314Z,551.25
2022-08-12T06:02:57.488Z,551.25
2022-08-12T06:03:57.412Z,540.00
2022-08-12T06:04:57.387Z,500.62
2022-08-12T06:05:57.434Z,399.38
2022-08-12T06:06:57.359Z,292.50
2022-08-12T06:08:01.677Z,258.75
2022-08-12T06:08:57.401Z,253.12
2022-08-12T06:09:57.437Z,258.75
2022-08-12T06:10:57.316Z,264.38
2022-08-12T06:12:05.780Z,281.25
2022-08-12T06:12:57.349Z,343.12
2022-08-12T06:13:57.361Z,517.50
2022-08-12T06:14:57.339Z,652.50
2022-08-12T06:15:57.315Z,697.50
2022-08-12T06:16:57.319Z,720.00
2022-08-12T06:17:57.243Z,736.88
2022-08-12T06:18:57.217Z,765.00
2022-08-12T06:20:25.895Z,793.12
2022-08-12T06:20:57.212Z,804.38
2022-08-12T06:21:57.233Z,810.00
2022-08-12T06:22:57.229Z,815.62
2022-08-12T06:23:57.115Z,826.88
2022-08-12T06:24:57.126Z,855.00
2022-08-12T06:25:57.214Z,855.00
2022-08-12T06:26:57.115Z,866.25
2022-08-12T06:28:07.472Z,877.50
2022-08-12T06:28:58.139Z,866.25
2022-08-12T06:30:09.490Z,905.62
2022-08-12T06:31:24.241Z,905.62
2022-08-12T06:31:57.045Z,810.00
2022-08-12T06:33:04.375Z,725.62
2022-08-12T06:35:21.665Z,613.12
2022-08-12T06:35:25.222Z,438.75
2022-08-12T06:35:59.093Z,466.88
2022-08-12T06:36:56.946Z,573.75
2022-08-12T06:37:57.674Z,804.38
2022-08-12T06:38:56.874Z,798.75
2022-08-12T06:40:01.537Z,753.75
2022-08-12T06:40:57.867Z,753.75
2022-08-12T06:42:05.154Z,686.25
2022-08-12T06:42:56.820Z,500.62
2022-08-12T06:44:04.462Z,303.75
2022-08-12T06:44:57.819Z,253.12
2022-08-12T06:45:56.785Z,241.88
2022-08-12T06:46:58.427Z,241.88
2022-08-12T06:47:56.759Z,230.62
2022-08-12T06:48:56.752Z,225.00
2022-08-12T06:49:56.732Z,213.75
2022-08-12T06:50:56.721Z,230.62
2022-08-12T06:51:57.315Z,292.50
2022-08-12T06:52:56.696Z,315.00
2022-08-12T06:53:56.680Z,253.12
2022-08-12T06:54:56.662Z,663.75
2022-08-12T06:55:57.865Z,298.12
2022-08-12T06:58:06.177Z,545.62
2022-08-12T06:58:07.943Z,382.50
2022-08-12T06:58:56.615Z,253.12
2022-08-12T06:59:56.595Z,286.88
2022-08-12T07:00:56.628Z,427.50
2022-08-12T07:01:56.572Z,438.75
2022-08-12T07:02:56.565Z,810.00
2022-08-12T07:04:05.160Z,1243.12
2022-08-12T07:04:56.536Z,978.75
2022-08-12T07:05:56.515Z,838.12
2022-08-12T07:06:56.508Z,1237.50
2022-08-12T07:07:56.494Z,855.00
2022-08-12T07:08:56.478Z,433.12
2022-08-12T07:10:07.415Z,309.38
2022-08-12T07:10:56.463Z,483.75
2022-08-12T07:11:56.439Z,399.38
2022-08-12T07:12:56.428Z,225.00
2022-08-12T07:14:08.531Z,219.38
2022-08-12T07:14:57.445Z,213.75
2022-08-12T07:15:56.392Z,219.38
2022-08-12T07:16:56.377Z,208.12
2022-08-12T07:17:56.362Z,202.50
2022-08-12T07:18:56.350Z,208.12
2022-08-12T07:20:01.950Z,208.12
2022-08-12T07:20:57.344Z,208.12
2022-08-12T07:22:00.264Z,208.12
2022-08-12T07:22:56.297Z,208.12
2022-08-12T07:23:56.279Z,213.75
2022-08-12T07:24:56.272Z,213.75
2022-08-12T07:25:58.401Z,219.38
2022-08-12T07:26:56.255Z,225.00
2022-08-12T07:27:56.231Z,225.00
2022-08-12T07:28:56.221Z,225.00
2022-08-12T07:30:00.036Z,230.62
2022-08-12T07:30:57.214Z,247.50
2022-08-12T07:31:56.183Z,264.38
2022-08-12T07:32:59.910Z,281.25
2022-08-12T07:33:56.146Z,298.12
2022-08-12T07:34:56.137Z,309.38
2022-08-12T07:35:56.120Z,320.62
2022-08-12T07:36:56.107Z,506.25
2022-08-12T07:37:56.099Z,1175.62
2022-08-12T07:38:56.085Z,1704.38
2022-08-12T07:40:00.238Z,1783.12
2022-08-12T07:40:56.054Z,1850.62
2022-08-12T07:41:56.040Z,1800.00
2022-08-12T07:42:56.034Z,1833.75
2022-08-12T07:43:56.014Z,1845.00
2022-08-12T07:44:56.148Z,1895.62
2022-08-12T07:45:55.988Z,1985.62
2022-08-12T07:46:55.983Z,2036.25
2022-08-12T07:47:55.959Z,2030.62
2022-08-12T07:48:55.963Z,1996.88
2022-08-12T07:50:04.614Z,1963.12
2022-08-12T07:50:56.958Z,2098.12
2022-08-12T07:51:55.909Z,2070.00
2022-08-12T07:52:55.908Z,2030.62
2022-08-12T07:54:00.126Z,2126.25
2022-08-12T07:54:55.888Z,1940.62
2022-08-12T07:55:55.857Z,1670.62
2022-08-12T07:56:55.852Z,1063.12
2022-08-12T07:57:55.849Z,556.88
2022-08-12T07:58:55.821Z,472.50
2022-08-12T07:59:56.279Z,444.38
2022-08-12T08:00:55.796Z,433.12
2022-08-12T08:01:55.841Z,427.50
2022-08-12T08:02:55.772Z,427.50
2022-08-12T08:03:55.757Z,433.12
2022-08-12T08:04:55.746Z,444.38
2022-08-12T08:05:55.733Z,455.62
2022-08-12T08:06:55.721Z,466.88
2022-08-12T08:07:55.727Z,489.38
2022-08-12T08:08:55.702Z,528.75
2022-08-12T08:09:58.613Z,579.38
2022-08-12T08:10:55.673Z,720.00
2022-08-12T08:11:55.652Z,1293.75
2022-08-12T08:12:55.645Z,1935.00
2022-08-12T08:13:55.637Z,2210.62
2022-08-12T08:14:55.622Z,2278.12
2022-08-12T08:16:03.981Z,2295.00
2022-08-12T08:16:56.621Z,2368.12
2022-08-12T08:17:55.581Z,2328.75
2022-08-12T08:18:55.575Z,2154.38
2022-08-12T08:20:03.894Z,2047.50
2022-08-12T08:20:56.707Z,1985.62
2022-08-12T08:21:55.529Z,2058.75
2022-08-12T08:22:55.527Z,2182.50
2022-08-12T08:23:55.840Z,2295.00
2022-08-12T08:24:55.498Z,2356.88
2022-08-12T08:25:55.481Z,2255.62
2022-08-12T08:26:55.475Z,2261.25
2022-08-12T08:27:55.452Z,2311.88
2022-08-12T08:28:55.446Z,2272.50
2022-08-12T08:29:55.433Z,2272.50
2022-08-12T08:30:55.417Z,2340.00
2022-08-12T08:31:55.406Z,2469.38
2022-08-12T08:32:55.394Z,2475.00
2022-08-12T08:34:05.497Z,2261.25
2022-08-12T08:34:55.475Z,2216.25
2022-08-12T08:35:55.359Z,2452.50
2022-08-12T08:36:55.344Z,2655.00
2022-08-12T08:37:55.334Z,2520.00
2022-08-12T08:38:57.962Z,2508.75
2022-08-12T08:39:55.369Z,2542.50
2022-08-12T08:40:55.296Z,2615.62
2022-08-12T08:42:14.186Z,2655.00
2022-08-12T08:42:55.276Z,2688.75
2022-08-12T08:43:55.259Z,2677.50
2022-08-12T08:44:57.981Z,2638.12
2022-08-12T08:45:55.237Z,2716.88
2022-08-12T08:46:55.226Z,2835.00
2022-08-12T08:47:58.407Z,2863.12
2022-08-12T08:48:59.363Z,3099.38
2022-08-12T08:49:55.191Z,3110.62
2022-08-12T08:51:04.455Z,2846.25
2022-08-12T08:51:55.168Z,2795.62
2022-08-12T08:52:55.155Z,2891.25
2022-08-12T08:53:55.146Z,3071.25
2022-08-12T08:54:55.132Z,2998.12
2022-08-12T08:56:04.627Z,2936.25
2022-08-12T08:56:55.111Z,2958.75
2022-08-12T08:57:55.096Z,2722.50
2022-08-12T08:58:55.092Z,2593.12
2022-08-12T08:59:55.074Z,2655.00
2022-08-12T09:00:55.062Z,2733.75
2022-08-12T09:01:55.146Z,2801.25
2022-08-12T09:02:58.674Z,2975.62
2022-08-12T09:05:09.145Z,3009.38
2022-08-12T09:05:12.985Z,2919.38
2022-08-12T09:06:02.954Z,2998.12
2022-08-12T09:06:56.032Z,3121.88
2022-08-12T09:08:09.025Z,2998.12
2022-08-12T09:08:54.970Z,3037.50
2022-08-12T09:10:03.656Z,3150.00
2022-08-12T09:12:10.958Z,2795.62
2022-08-12T09:12:55.774Z,3003.75
2022-08-12T09:14:11.449Z,3054.38
2022-08-12T09:14:54.901Z,3037.50
2022-08-12T09:15:57.565Z,3256.88
2022-08-12T09:16:54.875Z,3273.75
2022-08-12T09:17:55.070Z,3335.62
2022-08-12T09:18:54.859Z,3217.50
2022-08-12T09:19:58.323Z,2958.75
2022-08-12T09:20:54.836Z,3105.00
2022-08-12T09:21:55.471Z,3099.38
2022-08-12T09:22:55.000Z,2891.25
2022-08-12T09:23:58.906Z,2925.00
2022-08-12T09:24:54.793Z,3110.62
2022-08-12T09:25:54.778Z,3262.50
2022-08-12T09:26:54.778Z,3155.62
2022-08-12T09:28:03.427Z,3195.00
2022-08-12T09:28:54.745Z,3526.88
2022-08-12T09:30:11.013Z,3661.88
2022-08-12T09:30:57.300Z,3481.88
2022-08-12T09:32:04.089Z,3217.50
2022-08-12T09:33:05.178Z,3099.38
2022-08-12T09:34:29.259Z,3459.38
2022-08-12T09:34:54.683Z,3521.25
2022-08-12T09:36:03.216Z,3453.75
2022-08-12T09:37:01.126Z,3335.62
2022-08-12T09:37:58.823Z,3408.75
2022-08-12T09:38:59.173Z,3352.50
2022-08-12T09:40:04.395Z,3335.62
2022-08-12T09:42:07.175Z,3307.50
2022-08-12T09:42:32.893Z,3183.75
2022-08-12T09:43:15.254Z,3166.88
2022-08-12T09:44:01.288Z,3228.75
2022-08-12T09:45:18.009Z,3178.12
2022-08-12T09:46:20.625Z,3009.38
2022-08-12T09:46:55.941Z,2880.00
2022-08-12T09:47:59.926Z,2908.12
2022-08-12T09:48:56.296Z,2891.25
2022-08-12T09:49:57.867Z,2941.88
2022-08-12T09:50:55.548Z,2846.25
2022-08-12T09:51:54.490Z,2233.12
2022-08-12T09:52:56.802Z,2171.25
2022-08-12T09:54:09.134Z,2306.25
2022-08-12T09:54:59.786Z,2829.38
2022-08-12T09:56:06.300Z,2925.00
2022-08-12T09:57:00.513Z,1800.00
2022-08-12T09:58:45.562Z,1659.38
2022-08-12T09:59:00.062Z,1704.38
2022-08-12T10:00:12.952Z,3161.25
2022-08-12T10:00:54.518Z,3346.88
2022-08-12T10:02:45.959Z,2829.38
2022-08-12T10:02:54.876Z,1957.50
2022-08-12T10:04:03.494Z,1732.50
2022-08-12T10:04:54.402Z,894.38
2022-08-12T10:06:26.325Z,1096.88
2022-08-12T10:06:57.628Z,2115.00
2022-08-12T10:07:54.312Z,3223.12
2022-08-12T10:08:54.300Z,3369.38
2022-08-12T10:09:58.845Z,3380.62
2022-08-12T10:10:54.272Z,3335.62
2022-08-12T10:12:10.047Z,3189.38
2022-08-12T10:13:06.620Z,2761.88
2022-08-12T10:13:55.275Z,1417.50
2022-08-12T10:14:55.107Z,798.75
2022-08-12T10:16:02.952Z,686.25
2022-08-12T10:16:55.245Z,624.38
2022-08-12T10:18:06.005Z,596.25
2022-08-12T10:18:54.195Z,590.62
2022-08-12T10:19:54.177Z,585.00
2022-08-12T10:20:54.167Z,596.25
2022-08-12T10:21:56.890Z,618.75
2022-08-12T10:22:54.417Z,663.75
2022-08-12T10:23:57.086Z,731.25
2022-08-12T10:24:54.135Z,894.38
2022-08-12T10:26:34.566Z,1839.38
2022-08-12T10:26:54.094Z,3262.50
2022-08-12T10:28:05.352Z,3690.00
2022-08-12T10:29:02.954Z,3661.88
2022-08-12T10:30:03.669Z,3133.12
2022-08-12T10:30:58.447Z,3802.50
2022-08-12T10:32:20.708Z,3898.12
2022-08-12T10:32:56.276Z,3796.88
2022-08-12T10:34:05.490Z,3633.75
2022-08-12T10:34:56.908Z,3892.50
2022-08-12T10:35:54.005Z,3836.25
2022-08-12T10:36:53.986Z,3808.12
2022-08-12T10:38:37.876Z,3628.12
2022-08-12T10:38:56.512Z,3588.75
2022-08-12T10:40:05.730Z,3532.50
2022-08-12T10:40:55.020Z,3285.00
2022-08-12T10:41:58.713Z,3088.12
2022-08-12T10:42:53.915Z,3285.00
2022-08-12T10:43:56.307Z,3639.38
2022-08-12T10:44:53.892Z,3886.88
2022-08-12T10:45:53.889Z,4027.50
2022-08-12T10:46:53.870Z,3886.88
2022-08-12T10:48:20.056Z,3819.38
2022-08-12T10:48:55.863Z,3920.62
2022-08-12T10:50:04.999Z,3639.38
2022-08-12T10:51:02.612Z,4179.38
2022-08-12T10:52:30.994Z,3937.50
2022-08-12T10:52:54.832Z,2711.25
2022-08-12T10:53:53.802Z,3200.62
2022-08-12T10:54:53.783Z,3543.75
2022-08-12T10:55:56.372Z,3611.25
2022-08-12T10:56:53.760Z,3481.88
2022-08-12T10:58:14.745Z,3048.75
2022-08-12T10:58:54.762Z,2767.50
2022-08-12T11:00:30.676Z,2930.62
2022-08-12T11:00:55.236Z,3307.50
2022-08-12T11:04:18.287Z,3459.38
2022-08-12T11:04:23.739Z,3701.25
2022-08-12T11:04:27.371Z,1828.12
2022-08-12T11:04:55.371Z,3673.12
2022-08-12T11:07:07.393Z,3723.75
2022-08-12T11:07:09.932Z,3841.88
2022-08-12T11:08:35.088Z,3751.88
2022-08-12T11:08:54.764Z,3543.75
2022-08-12T11:10:00.525Z,3532.50
2022-08-12T11:10:53.606Z,3622.50
2022-08-12T11:12:34.548Z,3296.25
2022-08-12T11:12:58.461Z,2761.88
2022-08-12T11:13:53.571Z,3628.12
2022-08-12T11:14:53.564Z,3588.75
2022-08-12T11:16:03.942Z,3408.75
2022-08-12T11:17:43.049Z,2958.75
2022-08-12T11:17:55.629Z,2891.25
2022-08-12T11:18:55.181Z,3403.12
2022-08-12T11:19:53.511Z,4072.50
2022-08-12T11:20:53.497Z,3993.75
2022-08-12T11:21:57.794Z,3549.38
2022-08-12T11:22:58.941Z,3538.12
2022-08-12T11:23:53.902Z,3600.00
2022-08-12T11:24:53.788Z,3583.12
2022-08-12T11:25:57.883Z,3600.00
2022-08-12T11:26:53.487Z,3780.00
2022-08-12T11:27:53.429Z,3864.38
2022-08-12T11:28:59.230Z,3532.50
2022-08-12T11:30:02.330Z,3481.88
2022-08-12T11:30:53.698Z,343.12
2022-08-12T11:32:02.068Z,348.75
2022-08-12T11:32:53.374Z,399.38
2022-08-12T11:34:06.373Z,455.62
2022-08-12T11:34:55.304Z,455.62
2022-08-12T11:35:59.159Z,410.62
2022-08-12T11:36:53.634Z,3549.38
2022-08-12T11:37:59.025Z,3515.62
2022-08-12T11:38:53.271Z,3600.00
2022-08-12T11:40:53.250Z,2936.25
2022-08-12T11:41:53.660Z,2925.00
2022-08-12T11:42:53.231Z,2896.88
2022-08-12T11:43:58.501Z,2385.00
2022-08-12T11:44:53.212Z,1608.75
2022-08-12T11:45:56.763Z,1057.50
2022-08-12T11:46:53.479Z,855.00
2022-08-12T11:47:54.858Z,815.62
2022-08-12T11:48:53.166Z,770.62
2022-08-12T11:49:53.154Z,742.50
2022-08-12T11:50:53.145Z,720.00
2022-08-12T11:51:57.503Z,753.75
2022-08-12T11:52:56.555Z,511.88
2022-08-12T11:53:57.338Z,545.62
2022-08-12T11:54:54.331Z,663.75
2022-08-12T11:55:53.088Z,675.00
2022-08-12T11:56:59.971Z,708.75
2022-08-12T11:58:39.366Z,663.75
2022-08-12T12:01:58.910Z,562.50
2022-08-12T12:02:01.717Z,337.50
2022-08-12T12:02:53.041Z,371.25
2022-08-12T12:03:54.769Z,585.00
2022-08-12T12:04:53.831Z,590.62
2022-08-12T12:05:52.983Z,579.38
2022-08-12T12:06:53.362Z,556.88
2022-08-12T12:08:38.047Z,568.12
2022-08-12T12:08:53.922Z,562.50
2022-08-12T12:09:53.865Z,551.25
2022-08-12T12:10:52.923Z,540.00
2022-08-12T12:11:52.915Z,534.38
2022-08-12T12:12:52.900Z,534.38
2022-08-12T12:14:07.372Z,523.12
2022-08-12T12:14:54.603Z,534.38
2022-08-12T12:15:53.184Z,545.62
2022-08-12T12:16:52.872Z,551.25
2022-08-12T12:17:55.911Z,562.50
2022-08-12T12:18:52.842Z,590.62
2022-08-12T12:19:52.838Z,601.88
2022-08-12T12:20:52.820Z,613.12
2022-08-12T12:21:52.812Z,849.38
2022-08-12T12:22:52.797Z,1243.12
2022-08-12T12:23:52.785Z,1361.25
2022-08-12T12:24:53.970Z,1867.50
2022-08-12T12:26:06.894Z,1777.50
2022-08-12T12:27:00.277Z,1850.62
2022-08-12T12:28:04.185Z,1760.62
2022-08-12T12:28:54.431Z,1642.50
2022-08-12T12:30:18.139Z,1012.50
2022-08-12T12:30:54.675Z,703.12
2022-08-12T12:32:10.959Z,540.00
2022-08-12T12:32:53.481Z,523.12
2022-08-12T12:33:57.923Z,528.75
2022-08-12T12:35:13.939Z,540.00
2022-08-12T12:36:18.526Z,551.25
2022-08-12T12:36:54.735Z,562.50
2022-08-12T12:38:04.666Z,596.25
2022-08-12T12:38:52.629Z,686.25
2022-08-12T12:39:55.294Z,483.75
2022-08-12T12:40:52.602Z,630.00
2022-08-12T12:42:42.744Z,630.00
2022-08-12T12:42:57.922Z,618.75